Terminal Aerodrome Forecast
Issued by NWS

Home | Current Version | Previous Version | Text Only | Print | Product List | Glossary On
Versions: 1 2 3 4 5 6 7 8 9 10 11 12 13 14 15 16 17 18 19 20 21 22 23
000
FTUS42 KMLB 190100 AAA
TAFSUA
TAF AMD
KSUA 190158Z 1902/1924 16008KT P6SM VCTS SCT020CB OVC050
      TEMPO 1902/1904 3SM TSRA BKN020CB
     FM190800 18008KT P6SM VCSH BKN030 OVC050
     FM191400 23014KT P6SM VCSH SCT015 OVC040=

USA.gov is the U.S. government's official web portal to all federal, state and local government web resources and services.